sensor_id;sensor_type;location;lat;lon;timestamp;temperature;humidity
27797;DHT22;15177;50.844;4.412;2023-02-18T00:00:11;12.20;99.90
27797;DHT22;15177;50.844;4.412;2023-02-18T00:02:37;12.20;99.90
27797;DHT22;15177;50.844;4.412;2023-02-18T00:05:03;12.10;99.90
27797;DHT22;15177;50.844;4.412;2023-02-18T00:07:33;12.10;99.90
27797;DHT22;15177;50.844;4.412;2023-02-18T00:09:59;12.10;99.90
27797;DHT22;15177;50.844;4.412;2023-02-18T00:12:25;12.10;99.90
27797;DHT22;15177;50.844;4.412;2023-02-18T00:14:51;12.10;99.90
27797;DHT22;15177;50.844;4.412;2023-02-18T00:17:17;12.10;99.90
27797;DHT22;15177;50.844;4.412;2023-02-18T00:19:42;12.10;99.90
27797;DHT22;15177;50.844;4.412;2023-02-18T00:22:08;12.10;99.90
27797;DHT22;15177;50.844;4.412;2023-02-18T00:24:33;12.10;99.90
27797;DHT22;15177;50.844;4.412;2023-02-18T00:26:59;12.20;99.90
27797;DHT22;15177;50.844;4.412;2023-02-18T00:29:25;12.20;99.90
27797;DHT22;15177;50.844;4.412;2023-02-18T00:31:51;12.20;99.90
27797;DHT22;15177;50.844;4.412;2023-02-18T00:34:17;12.10;99.90
27797;DHT22;15177;50.844;4.412;2023-02-18T00:36:42;12.10;99.90
27797;DHT22;15177;50.844;4.412;2023-02-18T00:39:09;12.10;99.90
27797;DHT22;15177;50.844;4.412;2023-02-18T00:41:35;12.00;99.90
27797;DHT22;15177;50.844;4.412;2023-02-18T00:44:01;12.10;99.90
27797;DHT22;15177;50.844;4.412;2023-02-18T00:46:27;12.00;99.90
27797;DHT22;15177;50.844;4.412;2023-02-18T00:48:54;12.00;99.90
27797;DHT22;15177;50.844;4.412;2023-02-18T00:51:19;12.10;99.90
27797;DHT22;15177;50.844;4.412;2023-02-18T00:53:46;12.00;99.90
27797;DHT22;15177;50.844;4.412;2023-02-18T00:56:12;11.90;99.90
27797;DHT22;15177;50.844;4.412;2023-02-18T00:58:38;11.90;99.90
27797;DHT22;15177;50.844;4.412;2023-02-18T01:01:05;11.80;99.90
27797;DHT22;15177;50.844;4.412;2023-02-18T01:03:30;11.90;99.90
27797;DHT22;15177;50.844;4.412;2023-02-18T01:05:56;11.90;99.90
27797;DHT22;15177;50.844;4.412;2023-02-18T01:08:22;11.80;99.90
27797;DHT22;15177;50.844;4.412;2023-02-18T01:10:51;11.80;99.90
27797;DHT22;15177;50.844;4.412;2023-02-18T01:13:17;11.80;99.90
27797;DHT22;15177;50.844;4.412;2023-02-18T01:15:43;11.80;99.90
27797;DHT22;15177;50.844;4.412;2023-02-18T01:18:11;11.90;99.90
27797;DHT22;15177;50.844;4.412;2023-02-18T01:20:38;11.90;99.90
27797;DHT22;15177;50.844;4.412;2023-02-18T01:23:07;11.90;99.90
27797;DHT22;15177;50.844;4.412;2023-02-18T01:25:33;11.90;99.90
27797;DHT22;15177;50.844;4.412;2023-02-18T01:27:59;11.90;99.90
27797;DHT22;15177;50.844;4.412;2023-02-18T01:30:25;12.00;99.90
27797;DHT22;15177;50.844;4.412;2023-02-18T01:32:50;12.00;99.90
27797;DHT22;15177;50.844;4.412;2023-02-18T01:35:18;11.90;99.90
27797;DHT22;15177;50.844;4.412;2023-02-18T01:37:45;11.90;99.90
27797;DHT22;15177;50.844;4.412;2023-02-18T01:40:17;12.00;99.90
27797;DHT22;15177;50.844;4.412;2023-02-18T01:42:43;12.00;99.90
27797;DHT22;15177;50.844;4.412;2023-02-18T01:47:56;12.00;99.90
27797;DHT22;15177;50.844;4.412;2023-02-18T01:50:22;11.90;99.90
27797;DHT22;15177;50.844;4.412;2023-02-18T01:52:48;11.90;99.90
27797;DHT22;15177;50.844;4.412;2023-02-18T01:55:14;11.90;99.90
27797;DHT22;15177;50.844;4.412;2023-02-18T01:57:40;11.90;99.90
27797;DHT22;15177;50.844;4.412;2023-02-18T02:00:12;11.80;99.90
27797;DHT22;15177;50.844;4.412;2023-02-18T02:02:41;11.90;99.90
27797;DHT22;15177;50.844;4.412;2023-02-18T02:05:08;11.90;99.90
27797;DHT22;15177;50.844;4.412;2023-02-18T02:07:34;11.90;99.90
27797;DHT22;15177;50.844;4.412;2023-02-18T02:10:00;11.90;99.90
27797;DHT22;15177;50.844;4.412;2023-02-18T02:15:44;11.80;99.90
27797;DHT22;15177;50.844;4.412;2023-02-18T02:18:35;11.80;99.90
27797;DHT22;15177;50.844;4.412;2023-02-18T02:26:20;11.70;99.90
27797;DHT22;15177;50.844;4.412;2023-02-18T02:34:36;11.60;99.90
27797;DHT22;15177;50.844;4.412;2023-02-18T02:37:19;11.60;99.90
27797;DHT22;15177;50.844;4.412;2023-02-18T02:39:58;11.70;99.90
27797;DHT22;15177;50.844;4.412;2023-02-18T02:42:45;11.70;99.90
27797;DHT22;15177;50.844;4.412;2023-02-18T02:47:50;11.80;99.90
27797;DHT22;15177;50.844;4.412;2023-02-18T02:50:27;11.80;99.90
27797;DHT22;15177;50.844;4.412;2023-02-18T02:52:58;11.90;99.90
27797;DHT22;15177;50.844;4.412;2023-02-18T02:55:26;11.90;99.90
27797;DHT22;15177;50.844;4.412;2023-02-18T02:57:53;11.80;99.90
27797;DHT22;15177;50.844;4.412;2023-02-18T03:00:37;11.80;99.90
27797;DHT22;15177;50.844;4.412;2023-02-18T03:03:38;11.80;99.90
27797;DHT22;15177;50.844;4.412;2023-02-18T03:09:13;11.80;99.90
27797;DHT22;15177;50.844;4.412;2023-02-18T03:12:24;11.70;99.90
27797;DHT22;15177;50.844;4.412;2023-02-18T03:17:36;11.70;99.90
27797;DHT22;15177;50.844;4.412;2023-02-18T03:20:16;11.80;99.90
27797;DHT22;15177;50.844;4.412;2023-02-18T03:22:46;11.70;99.90
27797;DHT22;15177;50.844;4.412;2023-02-18T03:25:13;11.70;99.90
27797;DHT22;15177;50.844;4.412;2023-02-18T03:27:45;11.70;99.90
27797;DHT22;15177;50.844;4.412;2023-02-18T03:30:40;11.70;99.90
27797;DHT22;15177;50.844;4.412;2023-02-18T03:33:05;11.70;99.90
27797;DHT22;15177;50.844;4.412;2023-02-18T03:35:32;11.70;99.90
27797;DHT22;15177;50.844;4.412;2023-02-18T03:38:28;11.70;99.90
27797;DHT22;15177;50.844;4.412;2023-02-18T03:40:52;11.70;99.90
27797;DHT22;15177;50.844;4.412;2023-02-18T03:43:18;11.70;99.90
27797;DHT22;15177;50.844;4.412;2023-02-18T03:45:43;11.70;99.90
27797;DHT22;15177;50.844;4.412;2023-02-18T03:48:09;11.70;99.90
27797;DHT22;15177;50.844;4.412;2023-02-18T03:50:35;11.70;99.90
27797;DHT22;15177;50.844;4.412;2023-02-18T03:53:01;11.70;99.90
27797;DHT22;15177;50.844;4.412;2023-02-18T03:55:26;11.70;99.90
27797;DHT22;15177;50.844;4.412;2023-02-18T03:57:52;11.60;99.90
27797;DHT22;15177;50.844;4.412;2023-02-18T04:00:18;11.60;99.90
27797;DHT22;15177;50.844;4.412;2023-02-18T04:02:44;11.60;99.90
27797;DHT22;15177;50.844;4.412;2023-02-18T04:05:10;11.60;99.90
27797;DHT22;15177;50.844;4.412;2023-02-18T04:07:36;11.50;99.90
27797;DHT22;15177;50.844;4.412;2023-02-18T04:10:03;11.40;99.90
27797;DHT22;15177;50.844;4.412;2023-02-18T04:12:28;11.40;99.90
27797;DHT22;15177;50.844;4.412;2023-02-18T04:14:54;11.40;99.90
27797;DHT22;15177;50.844;4.412;2023-02-18T04:17:20;11.40;99.90
27797;DHT22;15177;50.844;4.412;2023-02-18T04:19:45;11.50;99.90
27797;DHT22;15177;50.844;4.412;2023-02-18T04:22:11;11.40;99.90
27797;DHT22;15177;50.844;4.412;2023-02-18T04:24:37;11.40;99.90
27797;DHT22;15177;50.844;4.412;2023-02-18T04:27:02;11.40;99.90
27797;DHT22;15177;50.844;4.412;2023-02-18T04:29:29;11.30;99.90
27797;DHT22;15177;50.844;4.412;2023-02-18T04:31:55;11.40;99.90
27797;DHT22;15177;50.844;4.412;2023-02-18T04:34:21;11.40;99.90
27797;DHT22;15177;50.844;4.412;2023-02-18T04:36:46;11.40;99.90
27797;DHT22;15177;50.844;4.412;2023-02-18T04:39:12;11.30;99.90
27797;DHT22;15177;50.844;4.412;2023-02-18T04:41:37;11.30;99.90
27797;DHT22;15177;50.844;4.412;2023-02-18T04:44:03;11.30;99.90
27797;DHT22;15177;50.844;4.412;2023-02-18T04:46:29;11.30;99.90
27797;DHT22;15177;50.844;4.412;2023-02-18T04:48:55;11.40;99.90
27797;DHT22;15177;50.844;4.412;2023-02-18T04:51:21;11.40;99.90
27797;DHT22;15177;50.844;4.412;2023-02-18T04:53:46;11.40;99.90
27797;DHT22;15177;50.844;4.412;2023-02-18T04:56:12;11.40;99.90
27797;DHT22;15177;50.844;4.412;2023-02-18T04:58:37;11.40;99.90
27797;DHT22;15177;50.844;4.412;2023-02-18T05:01:04;11.40;99.90
27797;DHT22;15177;50.844;4.412;2023-02-18T05:03:30;11.40;99.90
27797;DHT22;15177;50.844;4.412;2023-02-18T05:05:56;11.30;99.90
27797;DHT22;15177;50.844;4.412;2023-02-18T05:08:23;11.40;99.90
27797;DHT22;15177;50.844;4.412;2023-02-18T05:10:49;11.40;99.90
27797;DHT22;15177;50.844;4.412;2023-02-18T05:13:15;11.30;99.90
27797;DHT22;15177;50.844;4.412;2023-02-18T05:15:41;11.30;99.90
27797;DHT22;15177;50.844;4.412;2023-02-18T05:18:06;11.40;99.90
27797;DHT22;15177;50.844;4.412;2023-02-18T05:20:32;11.40;99.90
27797;DHT22;15177;50.844;4.412;2023-02-18T05:22:59;11.40;99.90
27797;DHT22;15177;50.844;4.412;2023-02-18T05:25:24;11.40;99.90
27797;DHT22;15177;50.844;4.412;2023-02-18T05:27:51;11.30;99.90
27797;DHT22;15177;50.844;4.412;2023-02-18T05:30:17;11.30;99.90
27797;DHT22;15177;50.844;4.412;2023-02-18T05:32:43;11.20;99.90
27797;DHT22;15177;50.844;4.412;2023-02-18T05:35:09;11.20;99.90
27797;DHT22;15177;50.844;4.412;2023-02-18T05:37:35;11.20;99.90
27797;DHT22;15177;50.844;4.412;2023-02-18T05:40:00;11.20;99.90
27797;DHT22;15177;50.844;4.412;2023-02-18T05:42:26;11.10;99.90
27797;DHT22;15177;50.844;4.412;2023-02-18T05:44:51;11.20;99.90
27797;DHT22;15177;50.844;4.412;2023-02-18T05:47:18;11.20;99.90
27797;DHT22;15177;50.844;4.412;2023-02-18T05:49:44;11.10;99.90
27797;DHT22;15177;50.844;4.412;2023-02-18T05:52:10;11.10;99.90
27797;DHT22;15177;50.844;4.412;2023-02-18T05:54:37;11.20;99.90
27797;DHT22;15177;50.844;4.412;2023-02-18T05:57:03;11.20;99.90
27797;DHT22;15177;50.844;4.412;2023-02-18T05:59:31;11.20;99.90
27797;DHT22;15177;50.844;4.412;2023-02-18T06:01:56;11.20;99.90
27797;DHT22;15177;50.844;4.412;2023-02-18T06:04:22;11.20;99.90
27797;DHT22;15177;50.844;4.412;2023-02-18T06:06:48;11.20;99.90
27797;DHT22;15177;50.844;4.412;2023-02-18T06:09:14;11.20;99.90
27797;DHT22;15177;50.844;4.412;2023-02-18T06:11:40;11.30;99.90
27797;DHT22;15177;50.844;4.412;2023-02-18T06:14:06;11.30;99.90
27797;DHT22;15177;50.844;4.412;2023-02-18T06:16:32;11.30;99.90
27797;DHT22;15177;50.844;4.412;2023-02-18T06:18:58;11.20;99.90
27797;DHT22;15177;50.844;4.412;2023-02-18T06:21:24;11.20;99.90
27797;DHT22;15177;50.844;4.412;2023-02-18T06:23:49;11.10;99.90
27797;DHT22;15177;50.844;4.412;2023-02-18T06:26:15;11.10;99.90
27797;DHT22;15177;50.844;4.412;2023-02-18T06:28:41;11.10;99.90
27797;DHT22;15177;50.844;4.412;2023-02-18T06:31:06;11.10;99.90
27797;DHT22;15177;50.844;4.412;2023-02-18T06:33:32;11.10;99.90
27797;DHT22;15177;50.844;4.412;2023-02-18T06:36:04;11.10;99.90
27797;DHT22;15177;50.844;4.412;2023-02-18T06:38:34;11.20;99.90
27797;DHT22;15177;50.844;4.412;2023-02-18T06:41:01;11.20;99.90
27797;DHT22;15177;50.844;4.412;2023-02-18T06:43:26;11.20;99.90
27797;DHT22;15177;50.844;4.412;2023-02-18T06:45:52;11.20;99.90
27797;DHT22;15177;50.844;4.412;2023-02-18T06:48:17;11.20;99.90
27797;DHT22;15177;50.844;4.412;2023-02-18T06:50:45;11.30;99.90
27797;DHT22;15177;50.844;4.412;2023-02-18T06:53:11;11.30;99.90
27797;DHT22;15177;50.844;4.412;2023-02-18T06:55:37;11.30;99.90
27797;DHT22;15177;50.844;4.412;2023-02-18T06:58:04;11.30;99.90
27797;DHT22;15177;50.844;4.412;2023-02-18T07:00:30;11.30;99.90
27797;DHT22;15177;50.844;4.412;2023-02-18T07:02:56;11.20;99.90
27797;DHT22;15177;50.844;4.412;2023-02-18T07:05:23;11.20;99.90
27797;DHT22;15177;50.844;4.412;2023-02-18T07:07:48;11.20;99.90
27797;DHT22;15177;50.844;4.412;2023-02-18T07:10:14;11.20;99.90
27797;DHT22;15177;50.844;4.412;2023-02-18T07:12:40;11.20;99.90
27797;DHT22;15177;50.844;4.412;2023-02-18T07:15:06;11.20;99.90
27797;DHT22;15177;50.844;4.412;2023-02-18T07:17:31;11.20;99.90
27797;DHT22;15177;50.844;4.412;2023-02-18T07:19:58;11.10;99.90
27797;DHT22;15177;50.844;4.412;2023-02-18T07:22:25;11.20;99.90
27797;DHT22;15177;50.844;4.412;2023-02-18T07:24:51;11.10;99.90
27797;DHT22;15177;50.844;4.412;2023-02-18T07:27:18;11.20;99.90
27797;DHT22;15177;50.844;4.412;2023-02-18T07:29:43;11.20;99.90
27797;DHT22;15177;50.844;4.412;2023-02-18T07:32:14;11.10;99.90
27797;DHT22;15177;50.844;4.412;2023-02-18T07:34:40;11.10;99.90
27797;DHT22;15177;50.844;4.412;2023-02-18T07:37:06;11.10;99.90
27797;DHT22;15177;50.844;4.412;2023-02-18T07:39:41;11.10;99.90
27797;DHT22;15177;50.844;4.412;2023-02-18T07:42:08;11.10;99.90
27797;DHT22;15177;50.844;4.412;2023-02-18T07:44:35;11.10;99.90
27797;DHT22;15177;50.844;4.412;2023-02-18T07:47:01;11.20;99.90
27797;DHT22;15177;50.844;4.412;2023-02-18T07:49:27;11.20;99.90
27797;DHT22;15177;50.844;4.412;2023-02-18T07:51:52;11.20;99.90
27797;DHT22;15177;50.844;4.412;2023-02-18T07:54:18;11.20;99.90
27797;DHT22;15177;50.844;4.412;2023-02-18T07:56:44;11.30;99.90
27797;DHT22;15177;50.844;4.412;2023-02-18T07:59:12;11.30;99.90
27797;DHT22;15177;50.844;4.412;2023-02-18T08:01:39;11.40;99.90
27797;DHT22;15177;50.844;4.412;2023-02-18T08:04:05;11.40;99.90
27797;DHT22;15177;50.844;4.412;2023-02-18T08:06:34;11.50;99.90
27797;DHT22;15177;50.844;4.412;2023-02-18T08:09:00;11.30;99.90
27797;DHT22;15177;50.844;4.412;2023-02-18T08:11:25;11.30;99.90
27797;DHT22;15177;50.844;4.412;2023-02-18T08:13:51;11.30;99.90
27797;DHT22;15177;50.844;4.412;2023-02-18T08:16:18;11.30;99.90
27797;DHT22;15177;50.844;4.412;2023-02-18T08:18:45;11.30;99.90
27797;DHT22;15177;50.844;4.412;2023-02-18T08:21:13;11.30;99.90
27797;DHT22;15177;50.844;4.412;2023-02-18T08:23:39;11.30;99.90
27797;DHT22;15177;50.844;4.412;2023-02-18T08:26:05;11.40;99.90
27797;DHT22;15177;50.844;4.412;2023-02-18T08:28:30;11.40;99.90
27797;DHT22;15177;50.844;4.412;2023-02-18T08:30:57;11.40;99.90
27797;DHT22;15177;50.844;4.412;2023-02-18T08:33:23;11.50;99.90
27797;DHT22;15177;50.844;4.412;2023-02-18T08:35:50;11.40;99.90
27797;DHT22;15177;50.844;4.412;2023-02-18T08:38:16;11.50;99.90
27797;DHT22;15177;50.844;4.412;2023-02-18T08:40:42;11.60;99.90
27797;DHT22;15177;50.844;4.412;2023-02-18T08:43:09;11.60;99.90
27797;DHT22;15177;50.844;4.412;2023-02-18T08:45:36;11.70;99.90
27797;DHT22;15177;50.844;4.412;2023-02-18T08:48:03;11.70;99.90
27797;DHT22;15177;50.844;4.412;2023-02-18T08:50:29;11.70;99.90
27797;DHT22;15177;50.844;4.412;2023-02-18T08:52:55;11.70;99.90
27797;DHT22;15177;50.844;4.412;2023-02-18T08:55:24;11.70;99.90
27797;DHT22;15177;50.844;4.412;2023-02-18T08:57:51;11.70;99.90
27797;DHT22;15177;50.844;4.412;2023-02-18T09:00:19;11.70;99.90
27797;DHT22;15177;50.844;4.412;2023-02-18T09:02:44;11.70;99.90
27797;DHT22;15177;50.844;4.412;2023-02-18T09:05:12;11.70;99.90
27797;DHT22;15177;50.844;4.412;2023-02-18T09:07:37;11.70;99.90
27797;DHT22;15177;50.844;4.412;2023-02-18T09:10:03;11.80;99.90
27797;DHT22;15177;50.844;4.412;2023-02-18T09:12:29;11.70;99.90
27797;DHT22;15177;50.844;4.412;2023-02-18T09:14:55;11.70;99.90
27797;DHT22;15177;50.844;4.412;2023-02-18T09:17:21;11.80;99.90
27797;DHT22;15177;50.844;4.412;2023-02-18T09:19:46;11.90;99.90
27797;DHT22;15177;50.844;4.412;2023-02-18T09:22:13;11.90;99.90
27797;DHT22;15177;50.844;4.412;2023-02-18T09:24:40;11.90;99.90
27797;DHT22;15177;50.844;4.412;2023-02-18T09:27:06;12.00;99.90
27797;DHT22;15177;50.844;4.412;2023-02-18T09:29:33;12.10;99.90
27797;DHT22;15177;50.844;4.412;2023-02-18T09:32:01;12.00;99.90
27797;DHT22;15177;50.844;4.412;2023-02-18T09:34:27;12.00;99.90
27797;DHT22;15177;50.844;4.412;2023-02-18T09:36:53;12.00;99.90
27797;DHT22;15177;50.844;4.412;2023-02-18T09:39:19;11.90;99.90
27797;DHT22;15177;50.844;4.412;2023-02-18T09:41:48;12.00;99.90
27797;DHT22;15177;50.844;4.412;2023-02-18T09:44:18;12.00;99.90
27797;DHT22;15177;50.844;4.412;2023-02-18T09:49:22;12.10;99.90
27797;DHT22;15177;50.844;4.412;2023-02-18T09:51:50;12.10;99.90
27797;DHT22;15177;50.844;4.412;2023-02-18T09:54:19;12.10;99.90
27797;DHT22;15177;50.844;4.412;2023-02-18T09:56:45;12.00;99.90
27797;DHT22;15177;50.844;4.412;2023-02-18T09:59:18;11.90;99.90
27797;DHT22;15177;50.844;4.412;2023-02-18T10:01:49;11.90;99.90
27797;DHT22;15177;50.844;4.412;2023-02-18T10:04:46;11.90;99.90
27797;DHT22;15177;50.844;4.412;2023-02-18T10:07:32;12.00;99.90
27797;DHT22;15177;50.844;4.412;2023-02-18T10:10:04;11.90;99.90
27797;DHT22;15177;50.844;4.412;2023-02-18T10:12:36;12.00;99.90
27797;DHT22;15177;50.844;4.412;2023-02-18T10:15:02;12.10;99.90
27797;DHT22;15177;50.844;4.412;2023-02-18T10:17:30;12.10;99.90
27797;DHT22;15177;50.844;4.412;2023-02-18T10:19:57;12.10;99.90
27797;DHT22;15177;50.844;4.412;2023-02-18T10:22:24;12.00;99.90
27797;DHT22;15177;50.844;4.412;2023-02-18T10:24:59;12.00;99.90
27797;DHT22;15177;50.844;4.412;2023-02-18T10:27:29;12.00;99.90
27797;DHT22;15177;50.844;4.412;2023-02-18T10:32:44;12.00;99.90
27797;DHT22;15177;50.844;4.412;2023-02-18T10:35:24;12.10;99.90
27797;DHT22;15177;50.844;4.412;2023-02-18T10:46:14;12.20;99.90
27797;DHT22;15177;50.844;4.412;2023-02-18T10:51:30;12.30;99.90
27797;DHT22;15177;50.844;4.412;2023-02-18T10:53:56;12.30;99.90
27797;DHT22;15177;50.844;4.412;2023-02-18T10:56:49;12.30;99.90
27797;DHT22;15177;50.844;4.412;2023-02-18T10:59:19;12.30;99.90
27797;DHT22;15177;50.844;4.412;2023-02-18T11:01:59;12.30;99.90
27797;DHT22;15177;50.844;4.412;2023-02-18T11:04:34;12.30;99.90
27797;DHT22;15177;50.844;4.412;2023-02-18T11:07:24;12.30;99.90
27797;DHT22;15177;50.844;4.412;2023-02-18T11:10:23;12.30;99.90
27797;DHT22;15177;50.844;4.412;2023-02-18T11:15:26;12.20;99.90
27797;DHT22;15177;50.844;4.412;2023-02-18T11:17:57;12.30;99.90
27797;DHT22;15177;50.844;4.412;2023-02-18T11:20:37;12.40;99.90
27797;DHT22;15177;50.844;4.412;2023-02-18T11:25:34;12.40;99.90
27797;DHT22;15177;50.844;4.412;2023-02-18T11:28:04;12.40;99.90
27797;DHT22;15177;50.844;4.412;2023-02-18T11:30:36;12.50;99.90
27797;DHT22;15177;50.844;4.412;2023-02-18T11:35:53;12.40;99.90
27797;DHT22;15177;50.844;4.412;2023-02-18T11:38:25;12.40;99.90
27797;DHT22;15177;50.844;4.412;2023-02-18T11:41:02;12.40;99.90
27797;DHT22;15177;50.844;4.412;2023-02-18T11:43:33;12.40;99.90
27797;DHT22;15177;50.844;4.412;2023-02-18T11:46:18;12.50;99.90
27797;DHT22;15177;50.844;4.412;2023-02-18T11:48:45;12.50;99.90
27797;DHT22;15177;50.844;4.412;2023-02-18T11:51:23;12.60;99.90
27797;DHT22;15177;50.844;4.412;2023-02-18T11:54:04;12.60;99.90
27797;DHT22;15177;50.844;4.412;2023-02-18T11:56:35;12.50;99.90
27797;DHT22;15177;50.844;4.412;2023-02-18T11:59:02;12.60;99.90
27797;DHT22;15177;50.844;4.412;2023-02-18T12:01:37;12.60;99.90
27797;DHT22;15177;50.844;4.412;2023-02-18T12:04:11;12.60;99.90
27797;DHT22;15177;50.844;4.412;2023-02-18T12:09:37;12.60;99.90
27797;DHT22;15177;50.844;4.412;2023-02-18T12:14:43;12.70;99.90
27797;DHT22;15177;50.844;4.412;2023-02-18T12:39:52;12.80;99.90
27797;DHT22;15177;50.844;4.412;2023-02-18T12:42:39;12.90;99.90
27797;DHT22;15177;50.844;4.412;2023-02-18T12:51:08;12.80;99.90
27797;DHT22;15177;50.844;4.412;2023-02-18T12:53:41;12.90;99.90
27797;DHT22;15177;50.844;4.412;2023-02-18T13:04:46;13.10;99.90
27797;DHT22;15177;50.844;4.412;2023-02-18T13:07:23;13.20;99.90
27797;DHT22;15177;50.844;4.412;2023-02-18T13:12:57;13.20;99.90
27797;DHT22;15177;50.844;4.412;2023-02-18T13:18:25;13.00;99.90
27797;DHT22;15177;50.844;4.412;2023-02-18T13:20:55;12.90;99.90
27797;DHT22;15177;50.844;4.412;2023-02-18T13:23:25;12.80;99.90
27797;DHT22;15177;50.844;4.412;2023-02-18T13:25:56;12.70;99.90
27797;DHT22;15177;50.844;4.412;2023-02-18T13:31:14;12.60;99.90
27797;DHT22;15177;50.844;4.412;2023-02-18T13:39:05;12.60;99.90
27797;DHT22;15177;50.844;4.412;2023-02-18T13:41:40;12.50;99.90
27797;DHT22;15177;50.844;4.412;2023-02-18T13:46:54;12.50;99.90
27797;DHT22;15177;50.844;4.412;2023-02-18T13:49:30;12.50;99.90
27797;DHT22;15177;50.844;4.412;2023-02-18T13:51:57;12.50;99.90
27797;DHT22;15177;50.844;4.412;2023-02-18T13:54:31;12.50;99.90
27797;DHT22;15177;50.844;4.412;2023-02-18T13:59:43;12.40;99.90
27797;DHT22;15177;50.844;4.412;2023-02-18T14:10:25;12.40;99.90
27797;DHT22;15177;50.844;4.412;2023-02-18T14:28:35;12.20;99.90
27797;DHT22;15177;50.844;4.412;2023-02-18T14:33:33;12.20;99.90
27797;DHT22;15177;50.844;4.412;2023-02-18T14:36:18;12.20;99.90
27797;DHT22;15177;50.844;4.412;2023-02-18T14:49:54;12.10;99.90
27797;DHT22;15177;50.844;4.412;2023-02-18T14:54:53;12.20;99.90
27797;DHT22;15177;50.844;4.412;2023-02-18T14:57:30;12.20;99.90
27797;DHT22;15177;50.844;4.412;2023-02-18T14:59:58;12.20;99.90
27797;DHT22;15177;50.844;4.412;2023-02-18T15:02:28;12.30;99.90
27797;DHT22;15177;50.844;4.412;2023-02-18T15:05:23;12.40;99.90
27797;DHT22;15177;50.844;4.412;2023-02-18T15:08:00;12.40;99.90
27797;DHT22;15177;50.844;4.412;2023-02-18T15:13:30;12.40;99.90
27797;DHT22;15177;50.844;4.412;2023-02-18T15:15:57;12.50;99.90
27797;DHT22;15177;50.844;4.412;2023-02-18T15:18:33;12.50;99.90
27797;DHT22;15177;50.844;4.412;2023-02-18T15:21:04;12.50;99.90
27797;DHT22;15177;50.844;4.412;2023-02-18T15:23:34;12.30;99.90
27797;DHT22;15177;50.844;4.412;2023-02-18T15:26:02;12.30;99.90
27797;DHT22;15177;50.844;4.412;2023-02-18T15:28:31;12.40;99.90
27797;DHT22;15177;50.844;4.412;2023-02-18T15:31:01;12.40;99.90
27797;DHT22;15177;50.844;4.412;2023-02-18T15:33:28;12.40;99.90
27797;DHT22;15177;50.844;4.412;2023-02-18T15:36:02;12.30;99.90
27797;DHT22;15177;50.844;4.412;2023-02-18T15:38:28;12.40;99.90
27797;DHT22;15177;50.844;4.412;2023-02-18T15:40:54;12.40;99.90
27797;DHT22;15177;50.844;4.412;2023-02-18T15:43:22;12.30;99.90
27797;DHT22;15177;50.844;4.412;2023-02-18T15:45:50;12.30;99.90
27797;DHT22;15177;50.844;4.412;2023-02-18T15:48:34;12.20;99.90
27797;DHT22;15177;50.844;4.412;2023-02-18T15:51:09;12.10;99.90
27797;DHT22;15177;50.844;4.412;2023-02-18T15:53:38;12.20;99.90
27797;DHT22;15177;50.844;4.412;2023-02-18T15:56:08;12.20;99.90
27797;DHT22;15177;50.844;4.412;2023-02-18T15:58:35;12.20;99.90
27797;DHT22;15177;50.844;4.412;2023-02-18T16:01:06;12.20;99.90
27797;DHT22;15177;50.844;4.412;2023-02-18T16:03:45;12.30;99.90
27797;DHT22;15177;50.844;4.412;2023-02-18T16:06:25;12.30;99.90
27797;DHT22;15177;50.844;4.412;2023-02-18T16:09:14;12.30;99.90
27797;DHT22;15177;50.844;4.412;2023-02-18T16:11:46;12.40;99.90
27797;DHT22;15177;50.844;4.412;2023-02-18T16:14:25;12.40;99.90
27797;DHT22;15177;50.844;4.412;2023-02-18T16:19:30;12.30;99.90
27797;DHT22;15177;50.844;4.412;2023-02-18T16:21:56;12.30;99.90
27797;DHT22;15177;50.844;4.412;2023-02-18T16:24:28;12.40;99.90
27797;DHT22;15177;50.844;4.412;2023-02-18T16:26:56;12.40;99.90
27797;DHT22;15177;50.844;4.412;2023-02-18T16:29:35;12.40;99.90
27797;DHT22;15177;50.844;4.412;2023-02-18T16:32:01;12.30;99.90
27797;DHT22;15177;50.844;4.412;2023-02-18T16:34:27;12.30;99.90
27797;DHT22;15177;50.844;4.412;2023-02-18T16:36:53;12.30;99.90
27797;DHT22;15177;50.844;4.412;2023-02-18T16:39:38;12.30;99.90
27797;DHT22;15177;50.844;4.412;2023-02-18T16:42:11;12.30;99.90
27797;DHT22;15177;50.844;4.412;2023-02-18T16:44:37;12.30;99.90
27797;DHT22;15177;50.844;4.412;2023-02-18T16:47:03;12.30;99.90
27797;DHT22;15177;50.844;4.412;2023-02-18T16:49:29;12.30;99.90
27797;DHT22;15177;50.844;4.412;2023-02-18T16:51:55;12.30;99.90
27797;DHT22;15177;50.844;4.412;2023-02-18T16:54:21;12.30;99.90
27797;DHT22;15177;50.844;4.412;2023-02-18T16:56:47;12.30;99.90
27797;DHT22;15177;50.844;4.412;2023-02-18T16:59:14;12.20;99.90
27797;DHT22;15177;50.844;4.412;2023-02-18T17:01:42;12.20;99.90
27797;DHT22;15177;50.844;4.412;2023-02-18T17:04:14;12.10;99.90
27797;DHT22;15177;50.844;4.412;2023-02-18T17:06:40;12.10;99.90
27797;DHT22;15177;50.844;4.412;2023-02-18T17:09:14;12.10;99.90
27797;DHT22;15177;50.844;4.412;2023-02-18T17:11:46;12.20;99.90
27797;DHT22;15177;50.844;4.412;2023-02-18T17:14:18;12.10;99.90
27797;DHT22;15177;50.844;4.412;2023-02-18T17:16:45;12.10;99.90
27797;DHT22;15177;50.844;4.412;2023-02-18T17:19:11;12.20;99.90
27797;DHT22;15177;50.844;4.412;2023-02-18T17:21:37;12.10;99.90
27797;DHT22;15177;50.844;4.412;2023-02-18T17:24:03;12.00;99.90
27797;DHT22;15177;50.844;4.412;2023-02-18T17:26:29;12.00;99.90
27797;DHT22;15177;50.844;4.412;2023-02-18T17:28:57;12.00;99.90
27797;DHT22;15177;50.844;4.412;2023-02-18T17:31:29;12.00;99.90
27797;DHT22;15177;50.844;4.412;2023-02-18T17:33:57;12.10;99.90
27797;DHT22;15177;50.844;4.412;2023-02-18T17:36:23;12.10;99.90
27797;DHT22;15177;50.844;4.412;2023-02-18T17:38:49;12.00;99.90
27797;DHT22;15177;50.844;4.412;2023-02-18T17:41:15;12.00;99.90
27797;DHT22;15177;50.844;4.412;2023-02-18T17:43:41;12.00;99.90
27797;DHT22;15177;50.844;4.412;2023-02-18T17:46:14;12.10;99.90
27797;DHT22;15177;50.844;4.412;2023-02-18T17:48:42;12.00;99.90
27797;DHT22;15177;50.844;4.412;2023-02-18T17:51:26;12.10;99.90
27797;DHT22;15177;50.844;4.412;2023-02-18T17:53:52;12.00;99.90
27797;DHT22;15177;50.844;4.412;2023-02-18T17:56:17;12.10;99.90
27797;DHT22;15177;50.844;4.412;2023-02-18T17:58:43;12.10;99.90
27797;DHT22;15177;50.844;4.412;2023-02-18T18:01:11;12.10;99.90
27797;DHT22;15177;50.844;4.412;2023-02-18T18:03:37;12.00;99.90
27797;DHT22;15177;50.844;4.412;2023-02-18T18:06:02;11.90;99.90
27797;DHT22;15177;50.844;4.412;2023-02-18T18:08:30;12.00;99.90
27797;DHT22;15177;50.844;4.412;2023-02-18T18:10:59;11.90;99.90
27797;DHT22;15177;50.844;4.412;2023-02-18T18:13:27;11.90;99.90
27797;DHT22;15177;50.844;4.412;2023-02-18T18:15:54;12.00;99.90
27797;DHT22;15177;50.844;4.412;2023-02-18T18:18:20;12.00;99.90